Nearby METAR Reports

 

KORH - Worcester, Massachusetts, USA
Distance from station: NW 4mi, 7km
Updated: Fri, 25-Sep-2020 3:54am EDT
Clear
Clear
 Wind from WSW
Wind: WSW 7 mph , 11 km/h
Temperature: 57°F , 14°C
Dew Point: 54°F , 12°C
Humidity: 88%
Barometer: 30.03 inHg , 1016.9 hPa
Clouds: Clear
Visibility: 10 miles , 16 km
2020/09/25 07:54 KORH 250754Z AUTO 25006KT 10SM CLR 14/12 A3003 RMK AO2 SLP168 T01390117
KBOS - Boston, Massachusetts, USA
Distance from station: ENE 42mi, 68km
Updated: Fri, 25-Sep-2020 3:54am EDT
Clear
Clear
 Wind from calm
Wind: Calm
Temperature: 61°F , 16°C
Dew Point: 54°F , 12°C
Humidity: 77%
Barometer: 30.01 inHg , 1016.3 hPa
Clouds: Clear
Visibility: 10 miles , 16 km
2020/09/25 07:54 KBOS 250754Z 00000KT 10SM CLR 16/12 A3001 RMK AO2 SLP160 T01610122
 
KCQX - Chatham, Massachusetts, USA
Distance from station: SE 102mi, 164km
Updated: Fri, 25-Sep-2020 3:52am EDT
Clear
Clear
 Wind from SW
Wind: SW 5 mph , 7 km/h
Temperature: 63°F , 17°C
Dew Point: 61°F , 16°C
Humidity: 94%
Barometer: 30.04 inHg , 1017.3 hPa
Clouds: Clear
Visibility: 10 miles , 16 km
2020/09/25 07:52 KCQX 250752Z AUTO 23004KT 10SM CLR 17/16 A3004 RMK AO2 SLP172 T01670156
KMVY - Marthas Vineyard, Massachusetts, USA
Distance from station: SE 84mi, 135km
Updated: Fri, 25-Sep-2020 4:44am EDT
Fog, Overcast
Fog, Overcast
 Wind from SW
Wind: SW 3 mph , 6 km/h
Temperature: 55°F , 13°C
Dew Point: 55°F , 13°C
Humidity: 100%
Barometer: 30.04 inHg , 1017.3 hPa
Summary: Fog
Clouds: Overcast
Visibility: 1/4 mile , 0.4 km
Cloud details: Overcast 200 ft
2020/09/25 08:44 KMVY 250844Z AUTO 23003KT 1/4SM R24/1200V2200FT FG VV002 13/13 A3004 RMK AO2 T01330133
 
KPVC - Provincetown, Massachusetts, USA
Distance from station: NNW 85mi, 136km
Updated: Fri, 25-Sep-2020 3:56am EDT
Clear
Clear
 Wind from SSW
Wind: SSW 9 mph , 15 km/h
Temperature: 59°F , 15°C
Dew Point: 57°F , 14°C
Humidity: 94%
Barometer: 30.02 inHg , 1016.6 hPa
Clouds: Clear
Visibility: 10 miles , 16 km
2020/09/25 07:56 KPVC 250756Z AUTO 21008KT 10SM CLR 15/14 A3002 RMK AO2 SLP164 T01500144
KAQW - Savoy, Massachusetts, USA
Distance from station: NNW 66mi, 106km
Updated: Fri, 25-Sep-2020 3:52am EDT
Mist, Clear
Mist, Clear
 Wind from calm
Wind: Calm
Temperature: 50°F , 10°C
Dew Point: 48°F , 9°C
Humidity: 94%
Barometer: 30.04 inHg , 1017.3 hPa
Summary: Mist
Clouds: Clear
Visibility: 6 miles , 10 km
2020/09/25 07:52 KAQW 250752Z AUTO 00000KT 6SM BR CLR 10/09 A3004 RMK AO2 SLP173 T01000089
 
KIZG - Fryeburg, Maine, USA
Distance from station: NNE 133mi, 214km
Updated: Fri, 25-Sep-2020 3:54am EDT
Mostly cloudy
Mostly cloudy
 Wind from calm
Wind: Calm
Temperature: 52°F , 11°C
Dew Point: 50°F , 10°C
Humidity: 94%
Barometer: 30.03 inHg , 1016.9 hPa
Clouds: Mostly cloudy
Visibility: 10 miles , 16 km
Cloud details: Mostly cloudy 11000 ft
2020/09/25 07:54 KIZG 250754Z AUTO 00000KT 10SM BKN110 11/10 A3003 RMK AO2 SLP168 T01110100
KMWN - Mt Washington, New Hampshire, USA
Distance from station: NNE 146mi, 234km
Updated: Fri, 25-Sep-2020 3:51am EDT
Fog, Overcast
Fog, Overcast
 Wind from WNW
Wind: WNW 29 mph , 46 km/h
Temperature: 41°F , 5°C
Wind Chill: 30°F , -1°C
Dew Point: 41°F , 5°C
Humidity: 100%
Summary: Fog
Clouds: Overcast
Visibility: 1/16 mile , 0.1 km
Cloud details: Overcast 100 ft
2020/09/25 07:51 KMWN 250751Z 29025KT 1/16SM FG VV001 05/05 RMK STARS DMLY VSBL
 
KBML - Berlin, New Hampshire, USA
Distance from station: NNE 160mi, 257km
Updated: Fri, 25-Sep-2020 4:38am EDT
Mist, Overcast
Mist, Overcast
 Wind from calm
Wind: Calm
Temperature: 45°F , 7°C
Dew Point: 43°F , 6°C
Humidity: 93%
Barometer: 30.05 inHg , 1017.6 hPa
Summary: Mist
Clouds: Overcast
Visibility: 3/4 mile , 1.2 km
Cloud details: Mostly cloudy 200 ft
Overcast 11000 ft
2020/09/25 08:38 KBML 250838Z AUTO 00000KT 3/4SM BR BKN002 OVC110 07/06 A3005 RMK AO2 T00670061